Relevés horaires Gösgen (Suisse)


Relevés horaires à Gösgen - Dimanche 15 Juill. 2018
Heure UTC1 Température [°C] Vent [km/h] Hum. [%] Pres.4 [hPa] Visi. [Km] Nébu. [octa] Préc.5 [mm] Cond.
2m. Res. Ros. Dir.2 Vit. Moy. Raf.3
23:00 17.2 17.2 13.8 N 3.7 -- -- 80 1016.3 -- -- -- --
22:00 17.5 17.5 13.7 OSO 5.6 -- -- 78 1016.3 -- -- -- --
21:00 19.6 19.6 12.8 S 7.4 -- 33.3 65 1016.6(2.1/3h) -- -- -- --
20:00 20.6 20.6 12.4 O 9.3 -- -- 59 1016.4 -- -- -- --
19:00 21.0 21.0 12.4 N 9.3 -- -- 58 1015.3 -- -- -- --
18:00 21.5 21.5 13.1 ONO 13.0 -- 42.6 59 1014.1(1.0/3h) -- -- 0/12h
--
17:00 25.2 25.2 11.9 NNO 11.1 -- -- 43 1012.4 -- -- -- --
16:00 26.0 26.0 10.5 NE 11.1 -- -- 38 1011.9 -- -- -- --
15:00 27.2 27.2 10.4 NNO 9.3 -- 25.9 35 1012.2(-0.9/3h) -- -- -- --
14:00 27.6 27.6 13.3 O 13.0 -- -- 41 1012.4 -- -- -- --
13:00 27.3 27.3 12.8 SO 5.6 -- -- 41 1012.7 -- -- -- --
12:00 27.8 27.8 13.9 O 7.4 -- 16.7 43 1013(-2.0/3h) -- -- 0/6h
--
11:00 26.1 26.1 14.1 SO 5.6 -- -- 48 1014.2 -- -- -- --
10:00 25.3 25.3 16.0 OSO 5.6 -- -- 56 1015.1 -- -- -- --
09:00 23.2 23.2 16.3 N 5.6 -- 16.7 65 1015.8(-0.4/3h) -- -- -- --
08:00 21.8 21.8 15.5 OSO 5.6 -- -- 67 1016.3 -- -- -- --
07:00 20.0 20.0 15.5 SSO 3.7 -- -- 75 1017.1 -- -- -- --
06:00 18.4 18.4 15.2 E 1.9 -- 18.5 82 1017(0.3/3h) -- -- 0/12h
0/24h
--
05:00 17.3 17.3 15.2 NNO 0.0 -- -- 87 1017 -- -- -- --
04:00 16.6 16.6 14.4 NNO 1.9 -- -- 87 1016.9 -- -- -- --
03:00 18.2 18.2 14.2 O 5.6 -- 18.5 77 1016.7(-1.0/3h) -- -- -- --
02:00 18.5 18.5 14.8 SSO 5.6 -- -- 79 1017.2 -- -- -- --
01:00 20.0 20.0 14.0 SSO 1.9 -- -- 68 1017.2 -- -- -- --
00:00 20.4 20.4 14.0 SO 9.3 -- 33.3 67 1017.4(1.5/3h) -- -- 0/6h
--

1 Coordinated Universal Time. Actuellement il est 18:00 locale et 16:00 UTC.

2 Le vent souffle depuis la direction indiquée vers la direction oposée.

3 Les rafales max. sont disponible 40 min après l'heure du relevé.

4 Pour les stations d'altitude (plus de 600m) le géopotentiel du niveau le plus proche de la pression obligatoire est indiqué.

5 Les stations disposant d'un diffuseur peuvent indiquer "trace". Cela signifie que des précipitations ont touchés le sol mais que la quantité est inférieure à 0.1 mm.

Récapitulatif de la journée
Température [°C] Vent [km/h] Ensoleillement4 [h] Precipitations totale5 [mm] Pression [Hpa]
Min1 Max.2 Moy.3 Max. Min Max.
16.1 28.8 0 42.6 9 h 12 min 0 1011.9 1017.4

1 Température minimale relevée entre 18:00 UTC la veille et 18:00 UTC le jour donné.

2 Température maximale relevée entre 06:00 UTC le jour donné et 06:00 UTC le lendemain.

3 Vent moyen de la journée basé sur les relevés horaires.

4 Ensoleillement en heures relevé entre 06:00 UTC la veille et 06:00 UTC le jour donné.

5 Précipitations totales tombées entre 06:00 UTC la jour donné et 06:00 UTC le lendemain.

Graphiques horaires